Flight Track Log - Related Links

Times and Time Zones

All times are in EDT time to prevent confusion due to time zone crossing. See the UAL1494 flight status page for this flight to view local times or setup timezone preferences in your user account.

Time Position Orientation Groundspeed Altitude Reporting Facility
EDT Latitude Longitude Course Direction KTS MPH feet Rate Location/Type
Wed 02:57:57 AM 33.9333 -118.4333 90° East 188 216 1,400  Level Southern California TRACON
Wed 02:59:10 AM 33.8789 -118.5006 226° Southwest 243 280 3,900 2,239 Climbing Los Angeles Center
Wed 03:00:00 AM 33.6598 -118.3996 116° Southeast  Level FlightAware Approximate
Wed 03:00:11 AM 33.8142 -118.5100 187° South 264 304 6,400  Level Los Angeles Center
Wed 03:01:00 AM 33.6334 -118.2541 90° East  Level FlightAware Approximate
Wed 03:01:12 AM 33.7361 -118.5167 184° South 283 326 9,100  Level Los Angeles Center
Wed 03:02:00 AM 33.6333 -118.1014 90° East  Level FlightAware Approximate
Wed 03:02:12 AM 33.6783 -118.4450 134° Southeast 328 377 10,900  Level Los Angeles Center
Wed 03:03:00 AM 33.6334 -117.9487 90° East  Level FlightAware Approximate
Wed 03:03:13 AM 33.6436 -118.3011 106° East 384 442 12,800  Level Los Angeles Center
Wed 03:04:14 AM 33.6447 -118.1681 89° East 407 468 15,000 2,182 Climbing Los Angeles Center
Wed 03:05:14 AM 33.6444 -118.0275 90° East 421 484 17,200 2,083 Climbing Los Angeles Center
Wed 03:06:15 AM 33.6444 -117.8833 90° East 433 498 19,200 1,835 Climbing Los Angeles Center
Wed 03:07:15 AM 33.6439 -117.7344 90° East 445 512 20,900 1,636 Climbing Los Angeles Center
Wed 03:08:16 AM 33.6433 -117.5814 90° East 458 527 22,500 1,488 Climbing Los Angeles Center
Wed 03:09:16 AM 33.6411 -117.4225 91° East 474 545 23,900 1,450 Climbing Los Angeles Center
Wed 03:10:16 AM 33.6408 -117.2589 90° East 489 563 25,400 1,339 Climbing Los Angeles Center
Wed 03:11:17 AM 33.6381 -117.0914 91° East 501 577 26,600 1,289 Climbing Los Angeles Center
Wed 03:12:17 AM 33.6222 -116.9200 96° East 515 593 28,000 1,150 Climbing Los Angeles Center
Wed 03:13:17 AM 33.6067 -116.7511 96° East 525 604 28,900 1,240 Climbing Los Angeles Center
Wed 03:14:18 AM 33.5950 -116.5717 94° East 533 613 30,500 1,537 Climbing Los Angeles Center
Wed 03:15:18 AM 33.5806 -116.3922 95° East 536 617 32,000 1,550 Climbing Los Angeles Center
Wed 03:16:18 AM 33.5661 -116.2167 96° East 530 610 33,600 1,388 Climbing Los Angeles Center
Wed 03:17:19 AM 33.5500 -116.0378 96° East 534 615 34,800 694 Climbing Los Angeles Center
Wed 03:18:19 AM 33.5350 -115.8603 96° East 534 615 35,000 100 Climbing Los Angeles Center
Wed 03:19:19 AM 33.5189 -115.6844 96° East 531 611 35,000  Level Los Angeles Center
Wed 03:20:20 AM 33.5033 -115.5089 96° East 530 610 35,000  Level Los Angeles Center
Wed 03:21:20 AM 33.4875 -115.3350 96° East 525 604 35,000  Level Los Angeles Center
Wed 03:22:20 AM 33.4714 -115.1614 96° East 524 603 35,000  Level Los Angeles Center
Wed 03:23:20 AM 33.4553 -114.9886 96° East 523 602 35,000  Level Los Angeles Center
Wed 03:24:21 AM 33.4389 -114.8125 96° East 531 611 35,000  Level Los Angeles Center
Wed 03:25:21 AM 33.4194 -114.6378 98° East 530 610 35,000  Level Los Angeles Center
Wed 03:26:21 AM 33.4042 -114.4694 96° East 515 593 35,000  Level Los Angeles Center
Wed 03:26:59 AM 33.3986 -114.3633 94° East 517 595 35,000  Level Albuquerque Center
Wed 03:27:59 AM 33.3817 -114.1936 97° East 517 595 35,000  Level Albuquerque Center
Wed 03:28:59 AM 33.3631 -114.0236 97° East 515 593 35,000  Level Albuquerque Center
Wed 03:29:59 AM 33.3467 -113.8522 96° East 517 595 35,000  Level Albuquerque Center
Wed 03:31:00 AM 33.3281 -113.6825 97° East 515 593 35,000  Level Albuquerque Center
Wed 03:32:00 AM 33.3111 -113.5097 97° East 520 598 35,000  Level Albuquerque Center
Wed 03:33:00 AM 33.2928 -113.3406 97° East 516 594 35,000 450 Level Albuquerque Center
Wed 03:34:00 AM 33.2733 -113.1686 98° East 518 596 35,900 1,000 Climbing Albuquerque Center
Wed 03:35:00 AM 33.2547 -113.0003 97° East 515 593 37,000 537 Climbing Albuquerque Center
Wed 03:36:03 AM 33.2369 -112.8311 97° East 512 589 37,000  Level Albuquerque Center
Wed 03:37:01 AM 33.2175 -112.6586 98° East 517 595 37,000  Level Albuquerque Center
Wed 03:38:01 AM 33.1981 -112.4925 98° East 516 594 37,000  Level Albuquerque Center
Wed 03:39:01 AM 33.1747 -112.2908 98° East 516 594 37,000  Level Albuquerque Center
Wed 03:40:01 AM 33.1558 -112.1219 98° East 517 595 37,000  Level Albuquerque Center
Wed 03:41:01 AM 33.1347 -111.9500 98° East 515 593 37,000  Level Albuquerque Center
Wed 03:42:04 AM 33.1156 -111.7875 98° East 514 592 37,000  Level Albuquerque Center
Wed 03:43:02 AM 33.0944 -111.6156 98° East 513 590 37,000  Level Albuquerque Center
Wed 03:44:02 AM 33.0753 -111.4544 98° East 511 588 37,000  Level Albuquerque Center
Wed 03:45:05 AM 33.0550 -111.2872 98° East 513 590 37,000  Level Albuquerque Center
Wed 03:46:02 AM 33.0344 -111.1203 98° East 512 589 37,000  Level Albuquerque Center
Wed 03:47:02 AM 33.0133 -110.9547 99° East 510 587 37,000  Level Albuquerque Center
Wed 03:48:02 AM 32.9917 -110.7872 99° East 513 590 37,000  Level Albuquerque Center
Wed 03:49:05 AM 32.9681 -110.6092 99° East 512 589 37,000  Level Albuquerque Center
Wed 03:50:03 AM 32.9469 -110.4431 99° East 510 587 37,000  Level Albuquerque Center
Wed 03:51:03 AM 32.9250 -110.2772 99° East 510 587 37,000  Level Albuquerque Center
Wed 03:52:04 AM 32.9042 -110.1117 98° East 509 586 37,000  Level Albuquerque Center
Wed 03:53:03 AM 32.8806 -109.9469 100° East 507 583 37,000  Level Albuquerque Center
Wed 03:54:03 AM 32.8578 -109.7811 99° East 510 587 37,000  Level Albuquerque Center
Wed 03:55:03 AM 32.8347 -109.6156 99° East 510 587 37,000  Level Albuquerque Center
Wed 03:56:06 AM 32.8114 -109.4508 100° East 509 586 37,000  Level Albuquerque Center
Wed 03:57:04 AM 32.7875 -109.2850 100° East 512 589 37,000  Level Albuquerque Center
Wed 03:58:07 AM 32.7625 -109.1225 100° East 510 587 37,000  Level Albuquerque Center
Wed 03:59:04 AM 32.7428 -108.9472 98° East 509 586 37,000  Level Albuquerque Center
Wed 04:00:06 AM 32.7172 -108.7831 100° East 509 586 37,000  Level Albuquerque Center
Wed 04:01:07 AM 32.6925 -108.6333 101° East 511 588 37,000  Level Albuquerque Center
Wed 04:02:06 AM 32.6692 -108.4703 100° East 507 583 37,000  Level Albuquerque Center
Wed 04:03:05 AM 32.6450 -108.3067 100° East 506 582 37,000  Level Albuquerque Center
Wed 04:04:05 AM 32.6197 -108.1436 100° East 505 581 37,000  Level Albuquerque Center
Wed 04:05:05 AM 32.5950 -107.9811 100° East 505 581 37,000  Level Albuquerque Center
Wed 04:06:06 AM 32.5678 -107.8000 100° East 504 580 37,000  Level Albuquerque Center
Wed 04:07:07 AM 32.5433 -107.6381 100° East 503 579 37,000  Level Albuquerque Center
Wed 04:08:06 AM 32.5203 -107.4933 101° East 503 579 37,000  Level Albuquerque Center
Wed 04:09:08 AM 32.4969 -107.3303 100° East 503 579 37,000  Level Albuquerque Center
Wed 04:10:07 AM 32.4686 -107.1525 101° East 503 579 37,000  Level Albuquerque Center
Wed 04:11:06 AM 32.4422 -106.9917 101° East 502 578 37,000  Level Albuquerque Center
Wed 04:12:08 AM 32.4197 -106.8431 100° East 500 575 37,000  Level Albuquerque Center
Wed 04:13:07 AM 32.3933 -106.6833 101° East 497 572 37,000  Level Albuquerque Center
Wed 04:14:07 AM 32.3669 -106.5222 101° East 499 574 37,000  Level Albuquerque Center
Wed 04:15:08 AM 32.3400 -106.3631 101° East 497 572 37,000  Level Albuquerque Center
Wed 04:16:07 AM 32.3103 -106.1875 101° East 498 573 37,000  Level Albuquerque Center
Wed 04:17:07 AM 32.2839 -106.0289 101° East 495 570 37,000  Level Albuquerque Center
Wed 04:18:08 AM 32.2564 -105.8697 102° East 495 570 37,000  Level Albuquerque Center
Wed 04:19:08 AM 32.2289 -105.7114 102° East 492 566 37,000  Level Albuquerque Center
Wed 04:20:08 AM 32.2022 -105.5539 101° East 490 564 37,000  Level Albuquerque Center
Wed 04:21:11 AM 32.1753 -105.3958 101° East 491 565 37,000  Level Albuquerque Center
Wed 04:22:09 AM 32.1472 -105.2417 102° East 484 557 37,000  Level Albuquerque Center
Wed 04:23:09 AM 32.1211 -105.0844 101° East 485 558 37,000  Level Albuquerque Center
Wed 04:24:09 AM 32.0928 -104.9286 102° East 486 559 37,000  Level Albuquerque Center
Wed 04:25:09 AM 32.0647 -104.7711 102° East 488 562 37,000  Level Albuquerque Center
Wed 04:26:09 AM 32.0367 -104.6111 102° East 495 570 37,000  Level Albuquerque Center
Wed 04:27:10 AM 32.0081 -104.4539 102° East 493 567 37,000  Level Albuquerque Center
Wed 04:28:10 AM 31.9792 -104.2964 102° East 492 566 37,000  Level Albuquerque Center
Wed 04:29:13 AM 31.9506 -104.1400 102° East 490 564 37,000  Level Albuquerque Center
Wed 04:30:10 AM 31.9244 -103.9953 102° East 487 560 37,000  Level Albuquerque Center
Wed 04:31:10 AM 31.8944 -103.8397 103° East 489 563 37,000  Level Albuquerque Center
Wed 04:32:12 AM 31.8667 -103.6853 102° East 486 559 37,000  Level Albuquerque Center
Wed 04:33:12 AM 31.8361 -103.5306 103° East 487 560 37,000  Level Albuquerque Center
Wed 04:34:13 AM 31.8039 -103.3603 103° East 487 560 37,000  Level Albuquerque Center
Wed 04:35:11 AM 31.7739 -103.2072 103° East 485 558 37,000  Level Albuquerque Center
Wed 04:36:12 AM 31.7433 -103.0525 103° East 485 558 37,000  Level Albuquerque Center
Wed 04:37:12 AM 31.7133 -102.8994 103° East 482 555 37,000  Level Albuquerque Center
Wed 04:38:13 AM 31.6828 -102.7456 103° East 482 555 37,000  Level Albuquerque Center
Wed 04:39:12 AM 31.6531 -102.5922 103° East 481 554 37,000  Level Albuquerque Center
Wed 04:40:12 AM 31.6231 -102.4389 103° East 481 554 37,000  Level Albuquerque Center
Wed 04:41:13 AM 31.5942 -102.2839 102° East 482 555 37,000  Level Albuquerque Center
Wed 04:42:13 AM 31.5631 -102.1281 103° East 483 556 37,000  Level Albuquerque Center
Wed 04:43:26 AM 31.5242 -101.9422 104° East 484 557 37,000  Level Houston Center
Wed 04:44:26 AM 31.4922 -101.7886 104° East 482 555 37,000  Level Houston Center
Wed 04:45:26 AM 31.4600 -101.6364 104° East 481 554 37,000  Level Houston Center
Wed 04:46:26 AM 31.4281 -101.4853 104° East 479 551 37,000  Level Houston Center
Wed 04:47:26 AM 31.3964 -101.3331 104° East 480 552 37,000  Level Houston Center
Wed 04:48:27 AM 31.3639 -101.1836 104° East 477 549 37,000  Level Houston Center
Wed 04:49:27 AM 31.3367 -101.0511 103° East 481 554 37,000  Level Houston Center
Wed 04:50:27 AM 31.3047 -100.9003 104° East 479 551 37,000  Level Houston Center
Wed 04:51:27 AM 31.2722 -100.7489 104° East 479 551 37,000  Level Houston Center
Wed 04:52:28 AM 31.2403 -100.5978 104° East 479 551 37,000  Level Houston Center
Wed 04:53:28 AM 31.2072 -100.4472 104° East 479 551 37,000  Level Houston Center
Wed 04:54:28 AM 31.1747 -100.2956 104° East 480 552 37,000  Level Houston Center
Wed 04:55:28 AM 31.1431 -100.1442 104° East 479 551 37,000  Level Houston Center
Wed 04:56:28 AM 31.1092 -99.9944 105° East 478 550 37,000  Level Houston Center
Wed 04:57:29 AM 31.0764 -99.8439 104° East 478 550 37,000  Level Houston Center
Wed 04:58:29 AM 31.0422 -99.6942 105° East 477 549 37,000  Level Houston Center
Wed 04:59:29 AM 31.0086 -99.5442 105° East 477 549 37,000  Level Houston Center
Wed 05:00:29 AM 30.9747 -99.3931 105° East 482 555 37,000  Level Houston Center
Wed 05:01:29 AM 30.9403 -99.2442 105° East 478 550 37,000  Level Houston Center
Wed 05:02:30 AM 30.9014 -99.0708 105° East 479 551 37,000  Level Houston Center
Wed 05:03:30 AM 30.8664 -98.9211 105° East 477 549 37,000  Level Houston Center
Wed 05:04:30 AM 30.8314 -98.7728 105° East 474 545 37,000  Level Houston Center
Wed 05:05:30 AM 30.7978 -98.6214 104° East 478 550 37,000  Level Houston Center
Wed 05:06:30 AM 30.7678 -98.4978 106° East 475 547 37,000  Level Houston Center
Wed 05:07:30 AM 30.7325 -98.3483 105° East 477 549 37,000  Level Houston Center
Wed 05:08:31 AM 30.6969 -98.1994 105° East 474 545 37,000  Level Houston Center
Wed 05:09:31 AM 30.6619 -98.0506 105° East 475 547 37,000  Level Houston Center
Wed 05:10:31 AM 30.6253 -97.9014 106° East 477 549 37,000  Level Houston Center
Wed 05:11:31 AM 30.5908 -97.7539 105° East 475 547 37,000 -1,000 Level Houston Center
Wed 05:12:31 AM 30.5486 -97.6078 109° East 476 548 35,000 -2,300 Descending Houston Center
Wed 05:13:31 AM 30.5061 -97.4600 108° East 479 551 32,400 -2,777 Descending Houston Center
Wed 05:14:32 AM 30.4639 -97.3100 108° East 486 559 29,400 -2,826 Descending Houston Center
Wed 05:15:32 AM 30.4217 -97.1569 108° East 495 570 26,700 -2,400 Descending Houston Center
Wed 05:16:32 AM 30.3808 -97.0094 108° East 485 558 24,600 -2,050 Descending Houston Center
Wed 05:17:32 AM 30.3411 -96.8733 109° East 452 520 22,600 -2,050 Descending Houston Center
Wed 05:18:32 AM 30.3025 -96.7408 109° East 436 502 20,500 -2,234 Descending Houston Center
Wed 05:19:06 AM 30.2789 -96.6567 108° East 420 483 19,100 -2,237 Descending Houston Center
Wed 05:19:31 AM 30.2642 -96.6075 109° East 416 479 18,300 -1,556 Descending Houston Center
Wed 05:19:33 AM 30.2658 -96.6131 289° West 422 486 18,400 -2,200 Climbing Houston Center
Wed 05:20:31 AM 30.2267 -96.4811 109° East 398 458 16,100 -2,100 Descending Houston Center
Wed 05:20:33 AM 30.2306 -96.4897 298° West 406 467 16,300 -1,839 Climbing Houston Center
Wed 05:21:33 AM 30.1956 -96.3706 109° East 392 451 14,200 -2,400 Descending Houston Center
Wed 05:21:38 AM 30.1944 -96.3469 93° East 395 455 13,700 -2,000 Descending Houston Center
Wed 05:22:33 AM 30.1831 -96.2467 97° East 386 444 12,200 -1,900 Descending Houston Center
Wed 05:22:38 AM 30.1822 -96.2253 93° East 379 436 11,800 -2,100 Descending Houston Center
Wed 05:23:33 AM 30.1722 -96.1258 97° East 378 435 10,100 -1,770 Descending Houston Center
Wed 05:23:39 AM 30.1700 -96.1083 98° East 371 427 10,000 -98 Descending Houston Center
Wed 05:24:34 AM 30.1606 -96.0111 96° East 366 421 10,000  Level Houston Center
Wed 05:24:40 AM 30.1581 -95.9914 98° East 365 420 10,000  Level Houston Center
Wed 05:25:34 AM 30.1503 -95.8961 95° East 362 417 10,000  Level Houston Center
Wed 05:25:40 AM 30.1481 -95.8767 98° East 357 411 10,000  Level Houston Center
Wed 05:26:34 AM 30.1397 -95.7894 96° East 343 395 10,000  Level Houston Center
Wed 05:26:41 AM 30.1361 -95.7669 101° East 329 379 10,000  Level Houston Center
Wed 05:27:34 AM 30.1300 -95.6844 95° East 333 383 10,000  Level Houston Center
Wed 05:27:41 AM 30.1267 -95.6594 99° East 331 381 10,000  Level Houston Center
Wed 05:28:34 AM 30.1192 -95.5792 96° East 329 379 10,000  Level Houston Center
Wed 05:28:42 AM 30.1153 -95.5544 100° East 331 381 10,000 -197 Level Houston Center
Wed 05:29:35 AM 30.1089 -95.4764 95° East 327 376 9,800 -492 Descending Houston Center
Wed 05:29:43 AM 30.1064 -95.4564 98° East 303 349 9,500 -1,300 Descending Houston Center
Wed 05:30:35 AM 30.0997 -95.3858 96° East 297 342 8,500 -1,400 Descending Houston Center
Wed 05:30:43 AM 30.0978 -95.3633 96° East 287 330 8,100 -1,565 Descending Houston Center
Wed 05:31:44 AM 30.0872 -95.2706 97° East 289 333 6,700 -1,339 Descending Houston Center
Wed 05:32:35 AM 30.0831 -95.2033 94° East 285 328 5,600 -1,417 Descending Houston Center
Wed 05:32:56 AM 30.0775 -95.1631 99° East 279 321 5,000 -1,400 Descending Houston Center
Wed 05:33:35 AM 30.0744 -95.1133 94° East 282 325 4,200 -1,091 Descending Houston Center
Wed 05:33:51 AM 30.0703 -95.0867 100° East 276 318 4,000 -197 Descending Houston Center
Wed 05:34:36 AM 30.0506 -95.0361 114° Southeast 280 322 4,000  Level Houston Center
Wed 05:34:52 AM 30.0253 -95.0317 171° South 246 283 4,000  Level Houston Center
Wed 05:35:36 AM 29.9981 -95.0608 223° Southwest 233 268 4,000  Level Houston Center
Wed 05:35:52 AM 29.9814 -95.0806 226° Southwest 217 250 4,000 -700 Level Houston Center
Wed 05:36:36 AM 29.9778 -95.1156 263° West 214 246 3,300 -1,180 Descending Houston Center
Wed 05:36:53 AM 29.9764 -95.1392 266° West 187 215 2,800 -1,100 Descending Houston Center
Wed 05:37:36 AM 29.9792 -95.1769 275° West 196 226 2,200 -1,000 Descending Houston Center
Wed 05:37:53 AM 29.9781 -95.2017 267° West 192 221 1,800 -1,000 Descending Houston Center
Wed 05:38:36 AM 29.9781 -95.2356 270° West 189 217 1,200 -885 Descending Houston Center
Wed 05:38:54 AM 29.9764 -95.2525 264° West 140 161 900 -689 Descending Houston Center
Wed 05:39:37 AM 29.9775 -95.2800 273° West 151 174 500 -558 Descending Houston Center

Login

Don't have an account? Register now (free) for customized features, flight alerts, and more!